createdAt,value
2023-01-28T00:01:31.951Z,3.12
2023-01-28T00:04:00.305Z,2.29
2023-01-28T00:06:28.111Z,1.79
2023-01-28T00:08:56.851Z,1.39
2023-01-28T00:11:24.645Z,1.51
2023-01-28T00:13:52.789Z,2.97
2023-01-28T00:16:22.031Z,4.26
2023-01-28T00:18:50.053Z,3.44
2023-01-28T00:21:17.957Z,2.45
2023-01-28T00:23:50.430Z,1.82
2023-01-28T00:26:18.600Z,2.26
2023-01-28T00:28:47.790Z,3.63
2023-01-28T00:31:17.521Z,4.41
2023-01-28T00:33:45.992Z,3.60
2023-01-28T00:36:14.985Z,2.52
2023-01-28T00:38:43.654Z,2.00
2023-01-28T00:41:16.151Z,2.70
2023-01-28T00:43:44.716Z,4.06
2023-01-28T00:46:13.753Z,4.77
2023-01-28T00:48:42.540Z,3.75
2023-01-28T00:51:11.074Z,2.68
2023-01-28T00:53:39.525Z,2.06
2023-01-28T00:56:08.755Z,1.97
2023-01-28T00:58:37.130Z,3.16
2023-01-28T01:01:09.110Z,4.25
2023-01-28T01:03:37.938Z,3.34
2023-01-28T01:06:06.915Z,2.39
2023-01-28T01:08:35.355Z,1.80
2023-01-28T01:11:04.344Z,1.64
2023-01-28T01:13:34.421Z,2.88
2023-01-28T01:16:04.553Z,3.88
2023-01-28T01:18:33.751Z,4.34
2023-01-28T01:21:02.573Z,3.58
2023-01-28T01:23:31.273Z,2.56
2023-01-28T01:25:59.283Z,1.92
2023-01-28T01:28:27.472Z,2.48
2023-01-28T01:31:00.433Z,3.71
2023-01-28T01:33:29.565Z,4.41
2023-01-28T01:35:57.780Z,3.74
2023-01-28T01:38:27.920Z,2.83
2023-01-28T01:40:57.871Z,2.14
2023-01-28T01:43:26.461Z,1.94
2023-01-28T01:45:56.399Z,3.16
2023-01-28T01:48:27.425Z,4.40
2023-01-28T01:50:57.440Z,3.99
2023-01-28T01:53:26.589Z,3.16
2023-01-28T01:55:57.325Z,2.27
2023-01-28T01:58:27.567Z,1.87
2023-01-28T02:00:55.458Z,3.02
2023-01-28T02:03:26.835Z,4.24
2023-01-28T02:05:55.256Z,4.80
2023-01-28T02:08:23.260Z,3.81
2023-01-28T02:10:54.239Z,2.72
2023-01-28T02:13:24.121Z,2.04
2023-01-28T02:15:52.176Z,1.76
2023-01-28T02:18:20.206Z,2.88
2023-01-28T02:21:05.038Z,4.39
2023-01-28T02:23:39.357Z,4.45
2023-01-28T02:26:26.624Z,3.19
2023-01-28T02:28:58.256Z,2.26
2023-01-28T02:31:30.048Z,2.09
2023-01-28T02:33:59.804Z,3.48
2023-01-28T02:36:30.702Z,4.50
2023-01-28T02:39:00.871Z,4.02
2023-01-28T02:41:30.089Z,2.77
2023-01-28T02:43:57.854Z,2.33
2023-01-28T02:46:53.162Z,3.16
2023-01-28T02:49:23.401Z,4.48
2023-01-28T02:52:15.098Z,4.37
2023-01-28T02:54:46.600Z,3.18
2023-01-28T02:57:19.029Z,2.37
2023-01-28T02:59:49.184Z,2.06
2023-01-28T03:02:28.130Z,3.07
2023-01-28T03:05:00.788Z,4.37
2023-01-28T03:07:31.314Z,3.91
2023-01-28T03:10:03.958Z,2.86
2023-01-28T03:12:51.125Z,2.12
2023-01-28T03:15:39.209Z,2.83
2023-01-28T03:18:27.155Z,3.96
2023-01-28T03:21:15.539Z,3.85
2023-01-28T03:24:07.283Z,2.77
2023-01-28T03:26:57.322Z,1.86
2023-01-28T03:29:44.906Z,2.41
2023-01-28T03:32:33.115Z,3.66
2023-01-28T03:35:19.842Z,4.37
2023-01-28T03:37:47.921Z,3.32
2023-01-28T03:40:22.068Z,2.33
2023-01-28T03:42:51.826Z,1.85
2023-01-28T03:45:40.160Z,2.77
2023-01-28T03:48:08.123Z,3.99
2023-01-28T03:50:36.221Z,4.69
2023-01-28T03:53:15.901Z,3.82
2023-01-28T03:55:52.940Z,2.79
2023-01-28T03:58:21.218Z,2.06
2023-01-28T04:00:49.002Z,2.86
2023-01-28T04:03:18.657Z,4.02
2023-01-28T04:05:59.305Z,4.44
2023-01-28T04:08:30.090Z,3.23
2023-01-28T04:11:33.954Z,2.08
2023-01-28T04:14:04.833Z,1.86
2023-01-28T04:16:46.204Z,3.19
2023-01-28T04:19:14.895Z,4.45
2023-01-28T04:21:43.779Z,4.66
2023-01-28T04:24:11.951Z,3.53
2023-01-28T04:26:40.646Z,2.51
2023-01-28T04:29:08.506Z,2.14
2023-01-28T04:31:38.048Z,3.14
2023-01-28T04:34:24.200Z,4.44
2023-01-28T04:36:59.442Z,4.86
2023-01-28T04:39:59.971Z,3.63
2023-01-28T04:42:54.066Z,2.59
2023-01-28T04:45:42.230Z,2.30
2023-01-28T04:48:31.263Z,3.60
2023-01-28T04:51:20.948Z,4.33
2023-01-28T04:54:18.914Z,3.10
2023-01-28T04:56:47.283Z,2.39
2023-01-28T04:59:15.153Z,1.83
2023-01-28T05:01:45.511Z,2.41
2023-01-28T05:04:13.652Z,3.44
2023-01-28T05:06:41.428Z,4.04
2023-01-28T05:09:24.033Z,3.34
2023-01-28T05:11:54.022Z,2.39
2023-01-28T05:14:21.783Z,1.92
2023-01-28T05:17:04.778Z,3.26
2023-01-28T05:19:33.028Z,4.28
2023-01-28T05:22:01.857Z,3.81
2023-01-28T05:24:37.815Z,2.93
2023-01-28T05:27:06.969Z,2.07
2023-01-28T05:29:34.827Z,1.69
2023-01-28T05:32:03.918Z,2.90
2023-01-28T05:34:32.490Z,4.16
2023-01-28T05:37:06.117Z,4.68
2023-01-28T05:39:37.638Z,3.70
2023-01-28T05:42:06.425Z,2.65
2023-01-28T05:44:37.556Z,1.93
2023-01-28T05:47:16.014Z,1.43
2023-01-28T05:49:53.454Z,1.98
2023-01-28T05:52:40.997Z,3.48
2023-01-28T05:55:18.110Z,4.64
2023-01-28T05:57:48.749Z,4.79
2023-01-28T06:00:19.878Z,3.63
2023-01-28T06:02:48.263Z,2.64
2023-01-28T06:05:17.480Z,2.30
2023-01-28T06:07:46.512Z,3.46
2023-01-28T06:10:17.496Z,4.27
2023-01-28T06:12:46.136Z,3.67
2023-01-28T06:15:33.074Z,2.64
2023-01-28T06:18:14.127Z,1.97
2023-01-28T06:20:42.647Z,2.62
2023-01-28T06:23:11.096Z,3.62
2023-01-28T06:25:39.779Z,3.95
2023-01-28T06:28:12.144Z,3.04
2023-01-28T06:30:40.377Z,2.25
2023-01-28T06:33:08.594Z,1.91
2023-01-28T06:35:37.033Z,3.01
2023-01-28T06:38:05.216Z,4.33
2023-01-28T06:40:33.728Z,5.09
2023-01-28T06:43:02.124Z,4.28
2023-01-28T06:45:30.221Z,3.14
2023-01-28T06:47:58.673Z,2.39
2023-01-28T06:50:26.958Z,1.93
2023-01-28T06:52:54.870Z,2.93
2023-01-28T06:55:22.785Z,4.07
2023-01-28T06:57:51.126Z,4.23
2023-01-28T07:00:20.123Z,3.31
2023-01-28T07:02:47.936Z,2.45
2023-01-28T07:05:16.220Z,1.78
2023-01-28T07:07:45.088Z,2.27
2023-01-28T07:10:13.242Z,3.45
2023-01-28T07:12:41.753Z,4.12
2023-01-28T07:15:11.257Z,3.61
2023-01-28T07:17:40.312Z,2.73
2023-01-28T07:20:12.634Z,2.08
2023-01-28T07:22:41.581Z,2.59
2023-01-28T07:25:11.394Z,3.84
2023-01-28T07:27:39.464Z,4.51
2023-01-28T07:30:08.775Z,3.79
2023-01-28T07:32:36.988Z,2.86
2023-01-28T07:35:05.927Z,2.21
2023-01-28T07:37:33.697Z,3.01
2023-01-28T07:40:02.012Z,4.22
2023-01-28T07:42:29.905Z,4.61
2023-01-28T07:44:58.647Z,3.57
2023-01-28T07:47:26.943Z,2.72
2023-01-28T07:49:54.871Z,2.34
2023-01-28T07:52:22.843Z,3.25
2023-01-28T07:54:51.639Z,4.25
2023-01-28T07:57:23.085Z,3.73
2023-01-28T07:59:51.360Z,2.75
2023-01-28T08:02:19.581Z,2.11
2023-01-28T08:04:47.835Z,2.03
2023-01-28T08:07:15.870Z,3.31
2023-01-28T08:09:44.007Z,4.00
2023-01-28T08:12:13.310Z,3.16
2023-01-28T08:14:41.585Z,2.25
2023-01-28T08:17:09.538Z,1.73
2023-01-28T08:19:37.417Z,2.53
2023-01-28T08:22:05.250Z,3.81
2023-01-28T08:24:33.381Z,3.94
2023-01-28T08:27:01.166Z,3.18
2023-01-28T08:29:29.017Z,2.51
2023-01-28T08:31:57.210Z,1.97
2023-01-28T08:34:25.056Z,2.11
2023-01-28T08:36:52.959Z,3.30
2023-01-28T08:39:21.038Z,4.18
2023-01-28T08:41:49.221Z,3.53
2023-01-28T08:44:17.131Z,2.54
2023-01-28T08:53:57.536Z,3.42
2023-01-28T08:56:25.775Z,2.85
2023-01-28T08:58:53.891Z,2.22
2023-01-28T09:01:22.206Z,1.67
2023-01-28T09:03:50.122Z,1.38
2023-01-28T09:06:17.946Z,2.26
2023-01-28T09:08:45.859Z,3.42
2023-01-28T09:11:14.000Z,3.32
2023-01-28T09:13:41.768Z,2.62
2023-01-28T09:16:10.676Z,1.98
2023-01-28T09:18:38.612Z,1.53
2023-01-28T09:21:08.220Z,2.17
2023-01-28T09:23:36.968Z,3.65
2023-01-28T09:26:06.339Z,4.21
2023-01-28T09:28:34.203Z,3.42
2023-01-28T09:31:03.265Z,2.63
2023-01-28T09:33:31.705Z,2.05
2023-01-28T09:36:00.763Z,1.64
2023-01-28T09:38:30.653Z,2.02
2023-01-28T09:40:58.961Z,3.35
2023-01-28T09:43:40.721Z,4.37
2023-01-28T09:46:11.394Z,3.59
2023-01-28T09:48:40.843Z,2.85
2023-01-28T09:51:10.486Z,2.21
2023-01-28T09:53:43.400Z,1.68
2023-01-28T09:56:14.035Z,1.68
2023-01-28T09:58:42.804Z,3.07
2023-01-28T10:01:20.598Z,4.40
2023-01-28T10:03:53.209Z,3.87
2023-01-28T10:06:25.918Z,2.95
2023-01-28T10:09:12.978Z,2.32
2023-01-28T10:11:49.651Z,2.16
2023-01-28T10:14:21.687Z,3.42
2023-01-28T10:16:53.777Z,4.34
2023-01-28T10:19:27.573Z,3.67
2023-01-28T10:22:01.273Z,2.84
2023-01-28T10:24:33.501Z,2.34
2023-01-28T10:27:05.360Z,2.00
2023-01-28T10:29:36.454Z,1.97
2023-01-28T10:32:15.633Z,3.36
2023-01-28T10:34:46.313Z,4.64
2023-01-28T10:37:17.867Z,3.96
2023-01-28T10:39:48.908Z,3.04
2023-01-28T10:42:30.391Z,2.47
2023-01-28T10:45:03.488Z,2.02
2023-01-28T10:47:39.534Z,1.68
2023-01-28T10:50:16.500Z,1.38
2023-01-28T10:52:56.047Z,1.63
2023-01-28T10:55:28.242Z,3.36
2023-01-28T10:57:59.710Z,3.84
2023-01-28T11:00:32.709Z,2.91
2023-01-28T11:03:04.209Z,2.16
2023-01-28T11:05:35.037Z,1.65
2023-01-28T11:08:06.760Z,1.35
2023-01-28T11:10:38.266Z,2.08
2023-01-28T11:13:16.857Z,3.54
2023-01-28T11:15:51.119Z,4.91
2023-01-28T11:18:25.378Z,4.87
2023-01-28T11:20:57.477Z,3.69
2023-01-28T11:23:29.272Z,2.58
2023-01-28T11:26:05.381Z,1.89
2023-01-28T11:28:36.825Z,1.47
2023-01-28T11:31:08.067Z,1.60
2023-01-28T11:33:40.348Z,3.08
2023-01-28T11:36:15.585Z,4.51
2023-01-28T11:38:55.639Z,4.59
2023-01-28T11:41:29.257Z,3.52
2023-01-28T11:44:01.567Z,2.69
2023-01-28T11:46:40.730Z,2.11
2023-01-28T11:49:14.579Z,1.96
2023-01-28T11:51:49.416Z,3.25
2023-01-28T11:54:29.685Z,4.46
2023-01-28T11:57:05.915Z,4.25
2023-01-28T11:59:47.572Z,3.37
2023-01-28T12:02:18.788Z,2.68
2023-01-28T12:04:59.145Z,2.22
2023-01-28T12:07:35.237Z,1.85
2023-01-28T12:10:20.485Z,1.74
2023-01-28T12:13:15.168Z,3.41
2023-01-28T12:16:26.343Z,4.56
2023-01-28T12:19:20.586Z,3.32
2023-01-28T12:22:26.876Z,2.28
2023-01-28T12:25:06.303Z,1.82
2023-01-28T12:27:43.210Z,1.91
2023-01-28T12:30:20.970Z,3.46
2023-01-28T12:33:05.919Z,4.67
2023-01-28T12:35:52.734Z,3.98
2023-01-28T12:38:29.233Z,2.97
2023-01-28T12:41:08.785Z,2.27
2023-01-28T12:43:44.953Z,1.88
2023-01-28T12:46:22.295Z,1.75
2023-01-28T12:49:02.697Z,3.05
2023-01-28T12:51:50.101Z,4.20
2023-01-28T12:54:33.436Z,3.37
2023-01-28T12:57:22.019Z,2.60
2023-01-28T13:00:18.228Z,2.10
2023-01-28T13:03:19.726Z,1.80
2023-01-28T13:05:57.132Z,1.58
2023-01-28T13:08:32.779Z,1.70
2023-01-28T13:11:05.538Z,3.21
2023-01-28T13:13:36.973Z,4.56
2023-01-28T13:16:09.444Z,3.88
2023-01-28T13:18:46.725Z,3.12
2023-01-28T13:21:48.605Z,2.45
2023-01-28T13:24:29.254Z,2.00
2023-01-28T13:27:00.338Z,1.71
2023-01-28T13:29:32.428Z,1.69
2023-01-28T13:32:08.908Z,3.09
2023-01-28T13:34:40.950Z,4.63
2023-01-28T13:37:20.390Z,4.10
2023-01-28T13:39:53.617Z,3.22
2023-01-28T13:42:25.730Z,2.66
2023-01-28T13:44:57.701Z,2.22
2023-01-28T13:47:32.368Z,1.84
2023-01-28T13:50:04.783Z,1.56
2023-01-28T13:52:38.053Z,1.49
2023-01-28T13:55:30.377Z,2.91
2023-01-28T13:58:22.047Z,4.20
2023-01-28T14:01:12.998Z,3.33
2023-01-28T14:03:53.370Z,2.50
2023-01-28T14:06:31.412Z,1.99
2023-01-28T14:09:16.703Z,1.58
2023-01-28T14:11:58.291Z,1.25
2023-01-28T14:14:41.563Z,1.30
2023-01-28T14:17:15.727Z,2.75
2023-01-28T14:19:47.178Z,4.06
2023-01-28T14:22:19.386Z,4.53
2023-01-28T14:24:50.398Z,3.80
2023-01-28T14:27:25.106Z,3.02
2023-01-28T14:30:04.746Z,2.47
2023-01-28T14:32:35.875Z,2.02
2023-01-28T14:35:09.999Z,1.74
2023-01-28T14:37:41.530Z,1.52
2023-01-28T14:40:16.580Z,1.33
2023-01-28T14:42:49.478Z,1.18
2023-01-28T14:45:26.340Z,1.93
2023-01-28T14:48:02.765Z,3.85
2023-01-28T14:50:38.297Z,4.16
2023-01-28T14:53:21.771Z,3.35
2023-01-28T14:55:57.614Z,2.63
2023-01-28T14:58:32.572Z,2.85
2023-01-28T15:01:03.513Z,4.38
2023-01-28T15:03:46.587Z,4.94
2023-01-28T15:06:18.485Z,3.70
2023-01-28T15:08:51.477Z,2.84
2023-01-28T15:11:24.677Z,2.32
2023-01-28T15:14:01.278Z,3.12
2023-01-28T15:16:35.872Z,4.73
2023-01-28T15:19:10.019Z,5.44
2023-01-28T15:21:45.265Z,5.11
2023-01-28T15:24:18.670Z,4.00
2023-01-28T15:26:49.136Z,3.04
2023-01-28T15:29:32.394Z,2.42
2023-01-28T15:32:04.780Z,2.95
2023-01-28T15:34:38.855Z,4.46
2023-01-28T15:37:13.662Z,5.71
2023-01-28T15:39:45.161Z,4.93
2023-01-28T15:42:23.238Z,3.76
2023-01-28T15:44:54.686Z,2.87
2023-01-28T15:47:27.269Z,2.76
2023-01-28T15:50:00.019Z,4.22
2023-01-28T15:52:35.632Z,5.24
2023-01-28T15:55:07.791Z,5.56
2023-01-28T15:57:43.579Z,4.45
2023-01-28T16:00:20.847Z,3.45
2023-01-28T16:02:56.761Z,2.80
2023-01-28T16:05:29.836Z,3.03
2023-01-28T16:08:03.452Z,4.32
2023-01-28T16:10:34.563Z,5.13
2023-01-28T16:13:05.952Z,4.34
2023-01-28T16:15:38.915Z,3.33
2023-01-28T16:18:21.682Z,2.85
2023-01-28T16:20:54.076Z,4.26
2023-01-28T16:23:26.839Z,5.53
2023-01-28T16:26:06.521Z,4.98
2023-01-28T16:28:38.075Z,3.57
2023-01-28T16:31:13.201Z,3.00
2023-01-28T16:33:52.396Z,4.20
2023-01-28T16:36:24.199Z,5.49
2023-01-28T16:38:54.734Z,5.07
2023-01-28T16:41:28.602Z,3.97
2023-01-28T16:44:01.318Z,3.12
2023-01-28T16:46:33.703Z,2.85
2023-01-28T16:49:05.092Z,4.10
2023-01-28T16:51:37.632Z,5.35
2023-01-28T16:54:08.340Z,6.22
2023-01-28T16:56:45.550Z,5.72
2023-01-28T16:59:17.720Z,4.43
2023-01-28T17:01:53.998Z,3.55
2023-01-28T17:04:25.162Z,3.34
2023-01-28T17:07:00.352Z,4.73
2023-01-28T17:09:40.800Z,5.90
2023-01-28T17:12:16.316Z,6.41
2023-01-28T17:14:51.200Z,5.42
2023-01-28T17:17:22.729Z,4.09
2023-01-28T17:19:53.179Z,3.55
2023-01-28T17:22:24.503Z,4.72
2023-01-28T17:24:55.063Z,5.85
2023-01-28T17:27:30.363Z,6.09
2023-01-28T17:30:01.114Z,4.93
2023-01-28T17:32:32.153Z,3.81
2023-01-28T17:35:08.065Z,4.01
2023-01-28T17:37:43.806Z,5.60
2023-01-28T17:40:15.573Z,5.23
2023-01-28T17:42:46.550Z,4.03
2023-01-28T17:45:17.935Z,4.18
2023-01-28T17:47:49.491Z,5.52
2023-01-28T17:50:20.689Z,5.93
2023-01-28T17:52:59.315Z,4.88
2023-01-28T17:55:34.709Z,4.00
2023-01-28T17:58:08.463Z,5.05
2023-01-28T18:00:39.594Z,6.15
2023-01-28T18:03:13.565Z,5.28
2023-01-28T18:05:44.655Z,3.91
2023-01-28T18:08:15.436Z,4.51
2023-01-28T18:10:55.333Z,5.98
2023-01-28T18:13:26.583Z,5.67
2023-01-28T18:15:57.337Z,4.31
2023-01-28T18:18:28.862Z,4.72
2023-01-28T18:21:00.224Z,6.11
2023-01-28T18:23:31.625Z,5.53
2023-01-28T18:26:03.649Z,4.26
2023-01-28T18:28:35.952Z,4.91
2023-01-28T18:31:07.833Z,5.90
2023-01-28T18:33:44.175Z,6.21
2023-01-28T18:36:15.157Z,5.02
2023-01-28T18:38:46.630Z,4.11
2023-01-28T18:41:17.473Z,5.05
2023-01-28T18:43:48.588Z,6.14
2023-01-28T18:46:19.934Z,5.30
2023-01-28T18:48:55.078Z,4.18
2023-01-28T18:51:30.759Z,5.12
2023-01-28T18:54:03.319Z,6.24
2023-01-28T18:56:38.195Z,6.05
2023-01-28T18:59:11.460Z,4.55
2023-01-28T19:01:43.124Z,3.95
2023-01-28T19:04:19.340Z,5.16
2023-01-28T19:06:54.511Z,6.42
2023-01-28T19:09:26.121Z,6.04
2023-01-28T19:11:56.905Z,4.61
2023-01-28T19:14:27.908Z,4.00
2023-01-28T19:16:59.142Z,5.04
2023-01-28T19:19:30.498Z,6.10
2023-01-28T19:22:10.576Z,6.27
2023-01-28T19:24:46.083Z,4.80
2023-01-28T19:27:17.320Z,4.09
2023-01-28T19:29:48.898Z,5.18
2023-01-28T19:32:24.221Z,6.20
2023-01-28T19:34:55.394Z,6.35
2023-01-28T19:37:25.842Z,5.05
2023-01-28T19:39:57.119Z,4.23
2023-01-28T19:42:27.572Z,5.10
2023-01-28T19:44:58.783Z,6.21
2023-01-28T19:47:29.753Z,5.97
2023-01-28T19:50:01.118Z,4.66
2023-01-28T19:52:31.931Z,3.87
2023-01-28T19:55:07.692Z,5.09
2023-01-28T19:57:38.632Z,6.17
2023-01-28T20:00:12.756Z,6.20
2023-01-28T20:02:43.779Z,4.89
2023-01-28T20:05:15.545Z,4.23
2023-01-28T20:07:46.643Z,5.19
2023-01-28T20:10:22.050Z,6.24
2023-01-28T20:12:53.358Z,6.10
2023-01-28T20:15:24.507Z,4.91
2023-01-28T20:17:55.764Z,3.91
2023-01-28T20:20:26.497Z,4.57
2023-01-28T20:23:06.036Z,5.56
2023-01-28T20:25:36.857Z,6.28
2023-01-28T20:28:08.519Z,5.15
2023-01-28T20:30:39.309Z,4.03
2023-01-28T20:33:10.808Z,3.59
2023-01-28T20:35:41.438Z,4.69
2023-01-28T20:38:12.749Z,5.86
2023-01-28T20:40:44.288Z,6.73
2023-01-28T20:43:15.264Z,6.47
2023-01-28T20:45:46.003Z,5.24
2023-01-28T20:48:22.067Z,4.22
2023-01-28T20:50:57.877Z,3.75
2023-01-28T20:53:42.968Z,4.84
2023-01-28T20:56:16.473Z,6.18
2023-01-28T20:58:49.570Z,6.10
2023-01-28T21:01:26.218Z,4.94
2023-01-28T21:03:57.961Z,4.03
2023-01-28T21:06:29.018Z,3.64
2023-01-28T21:09:00.111Z,4.72
2023-01-28T21:11:35.231Z,6.03
2023-01-28T21:14:06.561Z,6.83
2023-01-28T21:16:42.488Z,6.29
2023-01-28T21:19:13.562Z,5.12
2023-01-28T21:21:45.723Z,4.27
2023-01-28T21:24:20.793Z,3.95
2023-01-28T21:26:52.619Z,5.12
2023-01-28T21:29:23.144Z,6.27
2023-01-28T21:32:03.098Z,6.66
2023-01-28T21:34:34.243Z,5.59
2023-01-28T21:37:04.869Z,4.56
2023-01-28T21:39:36.427Z,3.80
2023-01-28T21:42:07.305Z,3.30
2023-01-28T21:44:38.574Z,3.20
2023-01-28T21:47:09.336Z,4.48
2023-01-28T21:49:40.404Z,5.77
2023-01-28T21:52:11.163Z,6.63
2023-01-28T21:54:42.351Z,7.07
2023-01-28T21:57:13.442Z,6.23
2023-01-28T21:59:46.711Z,5.02
2023-01-28T22:02:17.834Z,3.96
2023-01-28T22:04:50.062Z,4.23
2023-01-28T22:07:21.833Z,5.71
2023-01-28T22:09:53.151Z,5.99
2023-01-28T22:12:24.291Z,4.56
2023-01-28T22:14:55.738Z,3.80
2023-01-28T22:17:26.742Z,4.78
2023-01-28T22:19:57.673Z,6.01
2023-01-28T22:22:28.198Z,5.52
2023-01-28T22:25:00.129Z,4.37
2023-01-28T22:27:31.211Z,4.63
2023-01-28T22:30:02.393Z,5.92
2023-01-28T22:32:33.186Z,6.00
2023-01-28T22:35:05.196Z,4.46
2023-01-28T22:37:35.979Z,4.22
2023-01-28T22:40:07.848Z,5.09
2023-01-28T22:42:38.572Z,6.04
2023-01-28T22:45:11.208Z,6.25
2023-01-28T22:47:41.888Z,4.88
2023-01-28T22:50:14.276Z,4.41
2023-01-28T22:52:45.338Z,5.33
2023-01-28T22:55:16.950Z,6.20
2023-01-28T22:57:47.852Z,6.40
2023-01-28T23:00:21.039Z,5.19
2023-01-28T23:02:50.602Z,4.04
2023-01-28T23:05:21.925Z,4.09
2023-01-28T23:07:52.868Z,5.40
2023-01-28T23:10:24.527Z,6.39
2023-01-28T23:12:55.127Z,6.44
2023-01-28T23:15:43.921Z,5.05
2023-01-28T23:18:34.920Z,4.41
2023-01-28T23:21:24.896Z,5.52
2023-01-28T23:24:13.394Z,6.41
2023-01-28T23:26:44.490Z,5.31
2023-01-28T23:29:15.166Z,4.50
2023-01-28T23:31:47.942Z,5.39
2023-01-28T23:34:18.925Z,6.53
2023-01-28T23:36:50.725Z,5.40
2023-01-28T23:39:21.750Z,4.35
2023-01-28T23:41:53.023Z,5.07
2023-01-28T23:44:25.887Z,6.34
2023-01-28T23:46:57.068Z,5.35
2023-01-28T23:49:27.843Z,4.12
2023-01-28T23:51:58.995Z,4.56
2023-01-28T23:54:29.823Z,5.78
2023-01-28T23:57:01.224Z,6.04
2023-01-28T23:59:33.402Z,4.69
